Airfield :
LOGIN :

Register | Disclaimer

   EN    FR    IT 

 










Legend :    VFR   Marginal VFR   IFR   Intensive IFR   Very Intensive IFR
Visi :
Ceiling :
>= 8 km
>= 3000ft
5 to 8 km
1000 to 3000 ft
1500m to 5 km
500 to 1000 ft
800 to 1500m
200 to 500 ft
< 800m
< 200 ft
Symbols :   Thunderstorms  Fog  Heavy snow  Heavy precipitations  Wind > 20 kt
SIGMETs :     Misc.  Thunderstorms  Icing  Turbulence  Mountain Waves  Volcanic Ashes






- Airport Elevation : 20 ft


EBFN - Koksijde

CURRENT METAR :
  • 271325Z 25016G27KT 9999 FEW030 SCT100 17/09 Q1013 BLU BLU

EXPIRED METARs :
  • 271255Z 25021KT 9999 FEW030 SCT100 17/10 Q1012 BLU BLU
  • 271225Z 24014KT 9999 FEW012TCU BKN100 17/11 Q1011 BLU BLU
  • 271155Z 23013KT 9999 FEW012TCU BKN070 17/13 Q1011 BLU BLU
  • 271133Z 23014KT 9999 FEW012 BKN070 16/13 Q1010 BLU BLU
  • 271125Z 24014G24KT 9999 FEW006 SCT012 BKN070 16/13 Q1010 GRN GRN BECMG WHT
  • 271121Z 23015G28KT 9999 FEW006 SCT012 BKN070 17/13 Q1010 GRN GRN BECMG WHT
  • 271104Z 18015KT 3000 RA SCT006 BKN012 BKN020 17/16 Q1009 YLO YLO TEMPO GRN
  • 271055Z 18016KT 6000 -RA SCT009 BKN012 BKN020 17/16 Q1009 GRN GRN TEMPO YLO

TAF TAF EBFN
Valid from the 27 at 13:00 until the 27 at 22:00 UTC


271141Z 2713/2722 25017G30KT 9999 SCT030



MET'MAP, your aeronautical weather chart ! - Copyright ORBIFLY December 2007 - Disclaimer

ORBIFLY MET'MAP TEAM :

Programming & Development : Alexandra Zaïnal
Concept & original design : Baudouin d'Aumeries
Assistance for programming : Marc-Olivier Méhu
Technical & hardware support : Manuel Goepfert

Contact : metmap@orbifly.com




SOURCES & CREDITS :

   NOAA